This is the latest recevied weather packets stored in our database for station/object DB0MW-13. If no packets are shown the sender has not sent any weather packets the latest 1 day(s).
| Time | Temp. | Humidity | Pressure | Rain* | Wind** | Luminosity | Snow |
|---|---|---|---|---|---|---|---|
| 1778057401 | 15° C | 73% | 1006.8 hPa | 0 mm | - | - | - |
| 1778057101 | 15° C | 75% | 1006.8 hPa | 0 mm | - | - | - |
| 1778056801 | 15° C | 76% | 1006.9 hPa | 0 mm | - | - | - |
| 1778056501 | 15° C | 77% | 1006.6 hPa | 0 mm | - | - | - |
| 1778056201 | 15° C | 78% | 1006.9 hPa | 0 mm | - | - | - |
| 1778055901 | 15° C | 78% | 1006.6 hPa | 0 mm | - | - | - |
| 1778055601 | 15° C | 78% | 1006.5 hPa | 0 mm | - | - | - |
| 1778055001 | 15.56° C | 78% | 1006.6 hPa | 0 mm | - | - | - |
| 1778052300 | 15.56° C | 77% | 1006.5 hPa | 0 mm | - | - | - |
| 1778050501 | 14.44° C | 83% | 1006.5 hPa | 0 mm | - | - | - |
| 1778050201 | 14.44° C | 84% | 1006.7 hPa | 0 mm | - | - | - |
| 1778049901 | 14.44° C | 85% | 1006.6 hPa | 0 mm | - | - | - |
| 1778049601 | 14.44° C | 85% | 1006.7 hPa | 0 mm | - | - | - |
| 1778049301 | 13.89° C | 87% | 1006.7 hPa | 0 mm | - | - | - |
| 1778049001 | 13.89° C | 88% | 1006.7 hPa | 0 mm | - | - | - |
| 1778048701 | 13.33° C | 89% | 1006.7 hPa | 0 mm | - | - | - |
| 1778048401 | 13.33° C | 90% | 1006.3 hPa | 0 mm | - | - | - |
| 1778047801 | 13.33° C | 92% | 1006.7 hPa | 0 mm | - | - | - |
| 1778046601 | 12.78° C | 95% | 1006.6 hPa | 0 mm | - | - | - |
| 1778044500 | 12.22° C | 97% | 1006.3 hPa | 0 mm | - | - | - |
| 1778044201 | 12.22° C | 97% | 1006.6 hPa | 0 mm | - | - | - |
| 1778043900 | 12.22° C | 97% | 1006.5 hPa | 0 mm | - | - | - |
| 1778042701 | 12.78° C | 97% | 1006.6 hPa | 0 mm | - | - | - |
| 1778042401 | 12.78° C | 97% | 1006.6 hPa | 0 mm | - | - | - |
| 1778042101 | 12.78° C | 97% | 1006.6 hPa | 0 mm | - | - | - |
* Rain latest hour (hover to see other rain measurements)
** Current wind speed in m/s (hover to see current wind gust speed)